createdAt,value
2023-02-26T00:01:43.356Z,1.40
2023-02-26T00:04:12.096Z,1.50
2023-02-26T00:06:53.021Z,1.60
2023-02-26T00:09:23.991Z,1.60
2023-02-26T00:11:52.336Z,1.60
2023-02-26T00:14:21.422Z,1.60
2023-02-26T00:16:56.716Z,1.60
2023-02-26T00:19:25.442Z,1.60
2023-02-26T00:21:54.035Z,1.60
2023-02-26T00:24:23.419Z,1.60
2023-02-26T00:26:51.485Z,1.60
2023-02-26T00:29:20.252Z,1.90
2023-02-26T00:31:48.921Z,1.50
2023-02-26T00:34:17.533Z,1.40
2023-02-26T00:36:50.765Z,1.40
2023-02-26T00:39:38.311Z,1.40
2023-02-26T00:42:07.016Z,1.40
2023-02-26T00:44:35.741Z,1.30
2023-02-26T00:47:14.768Z,1.30
2023-02-26T00:49:57.324Z,1.30
2023-02-26T00:52:37.363Z,1.30
2023-02-26T00:55:07.357Z,1.40
2023-02-26T00:57:35.613Z,1.20
2023-02-26T01:00:06.023Z,1.20
2023-02-26T01:02:35.205Z,1.50
2023-02-26T01:05:04.747Z,1.10
2023-02-26T01:07:41.402Z,1.10
2023-02-26T01:10:13.133Z,1.40
2023-02-26T01:12:42.092Z,1.10
2023-02-26T01:15:11.238Z,1.10
2023-02-26T01:17:45.561Z,1.10
2023-02-26T01:20:20.225Z,1.10
2023-02-26T01:22:55.091Z,1.50
2023-02-26T01:25:27.945Z,1.10
2023-02-26T01:27:57.924Z,1.10
2023-02-26T01:30:27.474Z,1.20
2023-02-26T01:33:00.401Z,1.20
2023-02-26T01:35:42.919Z,1.20
2023-02-26T01:38:36.355Z,1.20
2023-02-26T01:41:29.861Z,1.00
2023-02-26T01:44:05.857Z,1.20
2023-02-26T01:46:40.330Z,1.20
2023-02-26T01:49:15.309Z,1.20
2023-02-26T01:51:47.088Z,1.30
2023-02-26T01:54:16.118Z,1.20
2023-02-26T01:56:48.309Z,1.40
2023-02-26T01:59:24.266Z,1.20
2023-02-26T02:01:54.639Z,0.70
2023-02-26T02:04:25.192Z,1.30
2023-02-26T02:06:54.718Z,1.20
2023-02-26T02:09:22.865Z,1.20
2023-02-26T02:12:06.381Z,0.30
2023-02-26T02:14:47.955Z,1.10
2023-02-26T02:17:24.680Z,1.00
2023-02-26T02:20:29.097Z,0.90
2023-02-26T02:23:12.962Z,0.90
2023-02-26T02:26:14.755Z,0.80
2023-02-26T02:29:02.409Z,0.80
2023-02-26T02:31:36.950Z,0.80
2023-02-26T02:34:13.094Z,0.80
2023-02-26T02:36:46.192Z,0.80
2023-02-26T02:39:18.446Z,0.80
2023-02-26T02:41:51.025Z,0.80
2023-02-26T02:44:21.463Z,0.80
2023-02-26T02:46:53.707Z,0.80
2023-02-26T02:49:27.443Z,0.90
2023-02-26T02:52:00.252Z,0.80
2023-02-26T02:54:34.332Z,1.00
2023-02-26T02:57:06.834Z,1.00
2023-02-26T02:59:38.566Z,1.00
2023-02-26T03:02:12.772Z,1.00
2023-02-26T03:04:42.608Z,1.00
2023-02-26T03:07:11.037Z,1.00
2023-02-26T03:09:39.456Z,1.00
2023-02-26T03:12:07.684Z,0.90
2023-02-26T03:14:35.775Z,1.10
2023-02-26T03:17:26.292Z,1.00
2023-02-26T03:20:06.479Z,1.00
2023-02-26T03:22:40.915Z,1.00
2023-02-26T03:25:13.258Z,1.00
2023-02-26T03:27:46.479Z,1.00
2023-02-26T03:30:20.274Z,1.00
2023-02-26T03:32:57.963Z,1.00
2023-02-26T03:35:32.533Z,1.00
2023-02-26T03:38:05.226Z,1.00
2023-02-26T03:40:38.567Z,1.00
2023-02-26T03:43:10.890Z,0.90
2023-02-26T03:45:40.829Z,0.90
2023-02-26T03:48:14.542Z,1.10
2023-02-26T03:50:45.855Z,0.90
2023-02-26T03:53:18.631Z,0.80
2023-02-26T03:55:51.593Z,0.80
2023-02-26T03:58:20.125Z,0.80
2023-02-26T04:01:04.521Z,0.80
2023-02-26T04:03:38.026Z,0.80
2023-02-26T04:06:06.985Z,0.80
2023-02-26T04:08:35.419Z,0.80
2023-02-26T04:11:09.076Z,0.80
2023-02-26T04:13:37.281Z,0.80
2023-02-26T04:16:05.679Z,0.80
2023-02-26T04:18:35.056Z,0.80
2023-02-26T04:21:03.258Z,0.90
2023-02-26T04:23:31.541Z,0.80
2023-02-26T04:25:59.581Z,0.80
2023-02-26T04:28:27.776Z,0.80
2023-02-26T04:30:55.876Z,0.80
2023-02-26T04:33:24.399Z,0.80
2023-02-26T04:35:54.081Z,0.80
2023-02-26T04:38:22.136Z,0.80
2023-02-26T04:40:50.995Z,0.90
2023-02-26T04:43:20.016Z,0.90
2023-02-26T04:45:48.892Z,0.90
2023-02-26T04:48:17.937Z,0.90
2023-02-26T04:50:46.591Z,1.00
2023-02-26T04:53:15.998Z,1.00
2023-02-26T04:55:44.110Z,1.00
2023-02-26T04:58:12.281Z,1.00
2023-02-26T05:00:40.312Z,1.00
2023-02-26T05:03:09.970Z,1.00
2023-02-26T05:05:38.156Z,1.20
2023-02-26T05:08:06.270Z,1.00
2023-02-26T05:10:35.797Z,1.20
2023-02-26T05:13:04.039Z,1.00
2023-02-26T05:15:32.629Z,1.00
2023-02-26T05:18:00.658Z,0.90
2023-02-26T05:20:29.157Z,1.00
2023-02-26T05:22:57.183Z,1.00
2023-02-26T05:25:25.527Z,1.00
2023-02-26T05:27:55.812Z,1.00
2023-02-26T05:30:23.872Z,1.00
2023-02-26T05:32:52.126Z,1.00
2023-02-26T05:35:20.284Z,1.00
2023-02-26T05:37:48.755Z,0.90
2023-02-26T05:40:16.901Z,1.20
2023-02-26T05:42:45.112Z,1.10
2023-02-26T05:45:14.599Z,0.90
2023-02-26T05:47:42.576Z,0.90
2023-02-26T05:50:12.792Z,0.90
2023-02-26T05:52:40.813Z,0.70
2023-02-26T05:55:10.659Z,1.10
2023-02-26T05:57:38.685Z,0.90
2023-02-26T06:00:08.879Z,0.90
2023-02-26T06:02:38.359Z,0.90
2023-02-26T06:05:07.605Z,0.90
2023-02-26T06:07:35.693Z,1.00
2023-02-26T06:10:04.059Z,1.00
2023-02-26T06:12:32.172Z,1.10
2023-02-26T06:15:00.119Z,1.00
2023-02-26T06:17:28.295Z,0.90
2023-02-26T06:19:57.746Z,1.00
2023-02-26T06:22:25.787Z,1.00
2023-02-26T06:24:55.149Z,1.00
2023-02-26T06:27:23.624Z,0.90
2023-02-26T06:29:51.825Z,1.00
2023-02-26T06:32:20.002Z,0.90
2023-02-26T06:34:48.111Z,1.00
2023-02-26T06:37:17.566Z,1.00
2023-02-26T06:39:46.123Z,1.00
2023-02-26T06:42:14.322Z,1.00
2023-02-26T06:44:42.339Z,1.10
2023-02-26T06:47:10.374Z,1.00
2023-02-26T06:49:38.379Z,1.10
2023-02-26T06:52:06.702Z,1.10
2023-02-26T06:54:36.431Z,1.10
2023-02-26T06:57:04.842Z,1.20
2023-02-26T06:59:33.072Z,1.30
2023-02-26T07:02:01.215Z,1.20
2023-02-26T07:04:29.259Z,1.20
2023-02-26T07:06:57.268Z,1.20
2023-02-26T07:09:25.331Z,1.30
2023-02-26T07:11:54.735Z,1.30
2023-02-26T07:14:22.917Z,1.50
2023-02-26T07:16:51.080Z,1.40
2023-02-26T07:19:19.160Z,1.40
2023-02-26T07:21:47.366Z,1.20
2023-02-26T07:24:15.432Z,1.50
2023-02-26T07:26:43.661Z,1.50
2023-02-26T07:29:13.063Z,1.50
2023-02-26T07:31:41.813Z,1.50
2023-02-26T07:34:09.980Z,1.50
2023-02-26T07:36:38.059Z,1.50
2023-02-26T07:39:06.360Z,1.50
2023-02-26T07:41:34.372Z,1.60
2023-02-26T07:44:02.774Z,1.50
2023-02-26T07:46:32.423Z,1.60
2023-02-26T07:49:00.519Z,1.70
2023-02-26T07:51:30.076Z,1.60
2023-02-26T07:53:59.606Z,1.70
2023-02-26T07:56:28.162Z,1.70
2023-02-26T07:58:56.811Z,1.70
2023-02-26T08:01:24.889Z,1.70
2023-02-26T08:03:54.399Z,1.70
2023-02-26T08:06:22.443Z,1.60
2023-02-26T08:08:50.573Z,1.60
2023-02-26T08:11:18.783Z,1.60
2023-02-26T08:13:46.821Z,1.60
2023-02-26T08:16:14.990Z,1.50
2023-02-26T08:18:43.252Z,1.50
2023-02-26T08:21:12.912Z,1.50
2023-02-26T08:23:41.247Z,1.50
2023-02-26T08:26:12.481Z,1.50
2023-02-26T08:28:40.776Z,1.50
2023-02-26T08:31:09.027Z,1.50
2023-02-26T08:33:37.315Z,1.60
2023-02-26T08:36:05.858Z,1.60
2023-02-26T08:38:35.593Z,1.70
2023-02-26T08:41:03.793Z,1.80
2023-02-26T08:43:31.829Z,2.00
2023-02-26T08:46:00.615Z,2.00
2023-02-26T08:48:28.797Z,2.10
2023-02-26T08:50:56.816Z,2.10
2023-02-26T08:53:25.389Z,2.20
2023-02-26T08:55:55.336Z,2.30
2023-02-26T08:58:23.737Z,2.50
2023-02-26T09:00:51.766Z,2.70
2023-02-26T09:03:20.055Z,2.40
2023-02-26T09:05:48.136Z,2.50
2023-02-26T09:08:16.490Z,2.50
2023-02-26T09:10:44.853Z,2.60
2023-02-26T09:13:14.591Z,2.50
2023-02-26T09:15:42.715Z,2.40
2023-02-26T09:18:15.651Z,2.50
2023-02-26T09:20:44.057Z,2.50
2023-02-26T09:23:12.432Z,2.50
2023-02-26T09:25:40.801Z,2.60
2023-02-26T09:28:08.868Z,2.60
2023-02-26T09:30:38.275Z,2.80
2023-02-26T09:33:06.574Z,2.80
2023-02-26T09:35:34.647Z,2.90
2023-02-26T09:38:03.897Z,3.00
2023-02-26T09:40:41.937Z,3.00
2023-02-26T09:43:27.903Z,3.00
2023-02-26T09:46:00.236Z,3.00
2023-02-26T09:48:31.280Z,3.00
2023-02-26T09:51:00.502Z,3.10
2023-02-26T09:53:32.227Z,3.10
2023-02-26T09:56:05.747Z,3.20
2023-02-26T09:58:36.100Z,3.30
2023-02-26T10:01:19.282Z,3.30
2023-02-26T10:03:59.487Z,3.30
2023-02-26T10:06:30.567Z,3.50
2023-02-26T10:09:13.817Z,3.60
2023-02-26T10:11:49.745Z,3.70
2023-02-26T10:14:23.679Z,3.70
2023-02-26T10:16:58.154Z,3.80
2023-02-26T10:19:31.952Z,3.70
2023-02-26T10:22:07.098Z,3.70
2023-02-26T10:24:43.336Z,3.70
2023-02-26T10:27:16.435Z,3.60
2023-02-26T10:29:50.980Z,3.60
2023-02-26T10:32:29.781Z,3.60
2023-02-26T10:34:59.935Z,3.60
2023-02-26T10:37:40.271Z,3.70
2023-02-26T10:40:15.061Z,3.90
2023-02-26T10:45:28.385Z,4.20
2023-02-26T10:48:10.479Z,4.30
2023-02-26T10:50:50.077Z,4.70
2023-02-26T10:53:18.278Z,5.10
2023-02-26T10:55:51.227Z,5.10
2023-02-26T10:58:21.973Z,5.20
2023-02-26T11:00:53.835Z,5.00
2023-02-26T11:03:33.854Z,4.90
2023-02-26T11:06:03.860Z,4.80
2023-02-26T11:08:35.022Z,4.70
2023-02-26T11:11:05.525Z,4.60
2023-02-26T11:13:36.248Z,4.50
2023-02-26T11:16:07.702Z,4.50
2023-02-26T11:18:42.288Z,4.60
2023-02-26T11:21:17.721Z,4.70
2023-02-26T11:23:47.755Z,4.70
2023-02-26T11:26:18.874Z,4.80
2023-02-26T11:28:49.267Z,4.80
2023-02-26T11:31:19.946Z,4.80
2023-02-26T11:33:51.537Z,5.10
2023-02-26T11:36:21.556Z,5.10
2023-02-26T11:38:58.082Z,5.30
2023-02-26T11:41:28.913Z,5.90
2023-02-26T11:44:02.206Z,6.10
2023-02-26T11:46:30.708Z,6.00
2023-02-26T11:49:02.615Z,5.70
2023-02-26T11:51:31.415Z,5.40
2023-02-26T11:54:02.229Z,5.10
2023-02-26T11:56:34.337Z,4.80
2023-02-26T11:59:09.251Z,4.90
2023-02-26T12:01:37.938Z,4.80
2023-02-26T12:04:11.761Z,4.70
2023-02-26T12:06:39.905Z,4.70
2023-02-26T12:09:13.583Z,4.60
2023-02-26T12:12:15.145Z,4.50
2023-02-26T12:14:55.271Z,4.50
2023-02-26T12:17:43.408Z,4.40
2023-02-26T12:20:21.404Z,4.40
2023-02-26T12:22:56.084Z,4.40
2023-02-26T12:25:41.070Z,4.50
2023-02-26T12:28:33.078Z,4.50
2023-02-26T12:31:16.748Z,4.60
2023-02-26T12:33:56.389Z,4.60
2023-02-26T12:36:48.352Z,4.70
2023-02-26T12:39:31.805Z,4.80
2023-02-26T12:42:10.475Z,4.60
2023-02-26T12:45:07.289Z,4.70
2023-02-26T12:47:45.103Z,4.80
2023-02-26T12:50:28.417Z,4.90
2023-02-26T12:53:15.817Z,5.10
2023-02-26T12:55:56.915Z,5.30
2023-02-26T12:58:48.795Z,5.30
2023-02-26T13:01:34.122Z,5.00
2023-02-26T13:04:32.428Z,4.90
2023-02-26T13:07:20.730Z,4.90
2023-02-26T13:10:00.414Z,4.90
2023-02-26T13:12:37.739Z,5.00
2023-02-26T13:15:22.443Z,5.00
2023-02-26T13:17:58.655Z,5.10
2023-02-26T13:20:28.136Z,5.00
2023-02-26T13:23:00.642Z,4.90
2023-02-26T13:25:37.857Z,4.80
2023-02-26T13:28:21.746Z,4.70
2023-02-26T13:30:53.863Z,4.60
2023-02-26T13:33:25.895Z,4.60
2023-02-26T13:35:55.477Z,4.60
2023-02-26T13:38:29.809Z,4.60
2023-02-26T13:41:08.856Z,4.60
2023-02-26T13:43:49.024Z,4.60
2023-02-26T13:46:28.093Z,4.60
2023-02-26T13:49:04.758Z,4.70
2023-02-26T13:51:37.799Z,4.60
2023-02-26T13:54:10.448Z,4.60
2023-02-26T13:57:04.122Z,4.50
2023-02-26T13:59:38.829Z,4.40
2023-02-26T14:02:38.921Z,4.30
2023-02-26T14:05:29.713Z,4.30
2023-02-26T14:08:22.470Z,4.30
2023-02-26T14:11:00.527Z,4.20
2023-02-26T14:13:40.838Z,4.10
2023-02-26T14:16:14.520Z,4.10
2023-02-26T14:18:50.294Z,4.10
2023-02-26T14:21:38.558Z,4.10
2023-02-26T14:24:14.467Z,4.10
2023-02-26T14:26:46.755Z,4.00
2023-02-26T14:29:21.638Z,3.90
2023-02-26T14:32:07.178Z,3.90
2023-02-26T14:34:38.569Z,3.90
2023-02-26T14:37:09.832Z,3.90
2023-02-26T14:39:42.616Z,4.00
2023-02-26T14:42:17.522Z,3.80
2023-02-26T14:44:51.448Z,3.80
2023-02-26T14:47:19.714Z,3.80
2023-02-26T14:49:49.608Z,3.80
2023-02-26T14:53:03.037Z,3.80
2023-02-26T14:55:46.925Z,3.80
2023-02-26T14:58:31.031Z,3.80
2023-02-26T15:01:19.394Z,3.70
2023-02-26T15:04:08.076Z,3.70
2023-02-26T15:06:51.021Z,3.70
2023-02-26T15:09:23.244Z,3.70
2023-02-26T15:12:04.258Z,3.60
2023-02-26T15:15:11.080Z,3.60
2023-02-26T15:17:59.187Z,3.60
2023-02-26T15:20:37.571Z,3.50
2023-02-26T15:23:30.045Z,3.60
2023-02-26T15:25:58.355Z,3.50
2023-02-26T15:28:30.091Z,3.40
2023-02-26T15:31:01.261Z,3.40
2023-02-26T15:33:30.866Z,3.40
2023-02-26T15:35:59.928Z,3.40
2023-02-26T15:38:28.639Z,3.40
2023-02-26T15:41:05.508Z,3.40
2023-02-26T15:43:33.745Z,3.40
2023-02-26T15:46:03.642Z,3.40
2023-02-26T15:48:38.350Z,3.50
2023-02-26T15:51:09.212Z,3.40
2023-02-26T15:53:41.687Z,3.40
2023-02-26T15:56:12.982Z,3.40
2023-02-26T15:58:45.031Z,3.60
2023-02-26T16:01:18.482Z,3.30
2023-02-26T16:03:48.607Z,3.20
2023-02-26T16:06:18.908Z,3.20
2023-02-26T16:08:46.962Z,3.10
2023-02-26T16:11:15.850Z,3.10
2023-02-26T16:13:45.614Z,3.20
2023-02-26T16:16:19.046Z,3.10
2023-02-26T16:18:49.206Z,3.30
2023-02-26T16:21:24.933Z,3.10
2023-02-26T16:23:55.584Z,3.10
2023-02-26T16:26:28.122Z,3.10
2023-02-26T16:29:01.746Z,3.10
2023-02-26T16:31:33.681Z,3.00
2023-02-26T16:34:06.282Z,3.10
2023-02-26T16:36:38.797Z,3.10
2023-02-26T16:39:18.395Z,3.10
2023-02-26T16:41:49.610Z,3.20
2023-02-26T16:44:42.252Z,3.10
2023-02-26T16:47:11.590Z,3.10
2023-02-26T16:49:43.558Z,3.00
2023-02-26T16:52:17.999Z,3.00
2023-02-26T16:54:55.246Z,3.00
2023-02-26T16:57:27.464Z,2.90
2023-02-26T16:59:59.357Z,3.00
2023-02-26T17:02:30.493Z,3.00
2023-02-26T17:05:03.972Z,3.00
2023-02-26T17:07:34.521Z,3.00
2023-02-26T17:10:09.591Z,3.00
2023-02-26T17:12:45.884Z,3.00
2023-02-26T17:15:20.890Z,2.90
2023-02-26T17:17:49.701Z,2.90
2023-02-26T17:20:19.453Z,2.90
2023-02-26T17:22:47.641Z,3.10
2023-02-26T17:25:17.629Z,2.80
2023-02-26T17:27:47.025Z,2.60
2023-02-26T17:30:18.231Z,2.60
2023-02-26T17:32:46.385Z,2.50
2023-02-26T17:35:15.157Z,2.40
2023-02-26T17:37:46.694Z,2.40
2023-02-26T17:40:22.074Z,2.40
2023-02-26T17:42:52.062Z,2.30
2023-02-26T17:45:21.212Z,2.30
2023-02-26T17:47:50.285Z,2.30
2023-02-26T17:50:30.100Z,2.20
2023-02-26T17:52:59.587Z,2.20
2023-02-26T17:55:27.668Z,2.20
2023-02-26T17:57:56.998Z,2.20
2023-02-26T18:00:25.666Z,2.20
2023-02-26T18:02:53.845Z,2.10
2023-02-26T18:05:21.921Z,2.10
2023-02-26T18:07:50.444Z,2.40
2023-02-26T18:10:24.843Z,2.10
2023-02-26T18:12:53.097Z,2.00
2023-02-26T18:15:21.420Z,2.00
2023-02-26T18:17:49.448Z,2.00
2023-02-26T18:20:20.586Z,2.10
2023-02-26T18:22:48.969Z,2.10
2023-02-26T18:25:17.308Z,2.10
2023-02-26T18:27:49.558Z,2.10
2023-02-26T18:30:29.647Z,2.40
2023-02-26T18:32:57.819Z,2.20
2023-02-26T18:35:27.533Z,2.20
2023-02-26T18:37:57.030Z,2.20
2023-02-26T18:40:28.232Z,2.20
2023-02-26T18:42:57.854Z,2.20
2023-02-26T18:45:25.917Z,2.20
2023-02-26T18:47:54.276Z,2.20
2023-02-26T18:50:22.483Z,2.20
2023-02-26T18:52:50.591Z,2.20
2023-02-26T18:55:18.661Z,2.20
2023-02-26T18:57:46.730Z,2.20
2023-02-26T19:00:17.019Z,2.20
2023-02-26T19:02:46.377Z,2.20
2023-02-26T19:05:16.389Z,2.20
2023-02-26T19:07:44.459Z,2.20
2023-02-26T19:10:15.093Z,2.10
2023-02-26T19:12:44.972Z,2.10
2023-02-26T19:15:15.324Z,2.30
2023-02-26T19:17:43.747Z,2.10
2023-02-26T19:20:13.565Z,2.10
2023-02-26T19:22:42.240Z,2.10
2023-02-26T19:25:11.296Z,2.30
2023-02-26T19:27:39.641Z,2.10
2023-02-26T19:30:09.143Z,2.10
2023-02-26T19:32:38.764Z,2.10
2023-02-26T19:35:07.899Z,2.20
2023-02-26T19:37:36.327Z,2.00
2023-02-26T19:40:09.807Z,2.10
2023-02-26T19:42:38.506Z,2.10
2023-02-26T19:45:07.305Z,2.10
2023-02-26T19:47:35.312Z,2.10
2023-02-26T19:50:05.761Z,2.10
2023-02-26T19:52:34.033Z,2.10
2023-02-26T19:55:02.567Z,2.20
2023-02-26T19:57:30.892Z,2.10
2023-02-26T20:00:00.009Z,2.10
2023-02-26T20:02:28.325Z,2.10
2023-02-26T20:04:56.435Z,2.10
2023-02-26T20:07:27.243Z,2.40
2023-02-26T20:09:55.289Z,2.10
2023-02-26T20:12:23.446Z,2.10
2023-02-26T20:14:51.747Z,2.10
2023-02-26T20:17:19.935Z,2.00
2023-02-26T20:19:48.405Z,2.10
2023-02-26T20:22:17.072Z,2.00
2023-02-26T20:24:46.614Z,2.30
2023-02-26T20:27:14.667Z,2.00
2023-02-26T20:29:42.770Z,2.00
2023-02-26T20:32:10.907Z,1.90
2023-02-26T20:34:39.348Z,1.90
2023-02-26T20:37:07.513Z,1.80
2023-02-26T20:39:36.028Z,1.80
2023-02-26T20:42:05.998Z,1.70
2023-02-26T20:44:34.341Z,1.70
2023-02-26T20:47:04.006Z,1.80
2023-02-26T20:49:32.657Z,1.60
2023-02-26T20:52:00.722Z,1.60
2023-02-26T20:54:28.816Z,1.60
2023-02-26T20:56:56.879Z,1.50
2023-02-26T20:59:26.526Z,1.50
2023-02-26T21:01:54.769Z,1.50
2023-02-26T21:04:22.805Z,1.50
2023-02-26T21:06:51.211Z,1.40
2023-02-26T21:09:19.244Z,1.40
2023-02-26T21:11:47.616Z,1.40
2023-02-26T21:14:15.796Z,1.30
2023-02-26T21:16:45.652Z,1.30
2023-02-26T21:19:13.795Z,1.30
2023-02-26T21:21:41.825Z,1.30
2023-02-26T21:24:10.124Z,1.30
2023-02-26T21:26:38.220Z,1.40
2023-02-26T21:29:06.358Z,1.20
2023-02-26T21:31:35.080Z,1.20
2023-02-26T21:34:30.014Z,1.10
2023-02-26T21:36:53.209Z,1.10
2023-02-26T21:39:21.356Z,1.10
2023-02-26T21:41:49.432Z,1.00
2023-02-26T21:44:17.492Z,1.00
2023-02-26T21:46:45.581Z,1.10
2023-02-26T21:49:15.082Z,0.90
2023-02-26T21:51:43.120Z,0.90
2023-02-26T21:54:11.277Z,0.80
2023-02-26T21:56:39.418Z,0.90
2023-02-26T21:59:07.681Z,0.90
2023-02-26T22:01:36.160Z,0.70
2023-02-26T22:04:04.396Z,1.00
2023-02-26T22:06:33.973Z,0.70
2023-02-26T22:09:02.064Z,0.60
2023-02-26T22:11:30.376Z,0.50
2023-02-26T22:13:58.774Z,1.20
2023-02-26T22:16:26.990Z,0.60
2023-02-26T22:18:55.524Z,0.50
2023-02-26T22:21:24.940Z,0.50
2023-02-26T22:23:54.552Z,0.50
2023-02-26T22:26:22.738Z,0.50
2023-02-26T22:28:51.219Z,0.40
2023-02-26T22:31:19.405Z,0.80
2023-02-26T22:33:47.566Z,0.40
2023-02-26T22:36:15.562Z,0.40
2023-02-26T22:38:43.636Z,0.30
2023-02-26T22:41:13.143Z,0.50
2023-02-26T22:43:41.169Z,0.30
2023-02-26T22:46:09.355Z,0.20
2023-02-26T22:48:37.319Z,0.20
2023-02-26T22:51:05.494Z,1.30
2023-02-26T22:53:33.566Z,0.20
2023-02-26T22:56:01.550Z,0.80
2023-02-26T22:58:31.162Z,0.20
2023-02-26T23:01:03.054Z,0.10
2023-02-26T23:03:31.206Z,0.10
2023-02-26T23:06:00.069Z,0.10
2023-02-26T23:08:28.603Z,0.00
2023-02-26T23:10:57.718Z,0.10
2023-02-26T23:13:27.217Z,0.10
2023-02-26T23:15:56.997Z,0.10
2023-02-26T23:18:25.049Z,0.10
2023-02-26T23:20:53.107Z,0.20
2023-02-26T23:23:21.198Z,0.10
2023-02-26T23:25:49.340Z,0.10
2023-02-26T23:28:17.404Z,-0.10
2023-02-26T23:30:46.157Z,0.60
2023-02-26T23:33:16.045Z,0.70
2023-02-26T23:35:44.836Z,0.10
2023-02-26T23:38:12.890Z,0.00
2023-02-26T23:40:40.864Z,0.40
2023-02-26T23:43:08.885Z,0.00
2023-02-26T23:45:36.961Z,0.00
2023-02-26T23:48:05.614Z,0.00
2023-02-26T23:50:35.345Z,0.00
2023-02-26T23:53:03.373Z,0.00
2023-02-26T23:55:31.367Z,0.00
2023-02-26T23:57:59.442Z,0.00
